sensor_id;sensor_type;location;lat;lon;timestamp;P1;durP1;ratioP1;P2;durP2;ratioP2
72198;SDS011;60103;51.014;16.992;2023-06-19T00:01:26;12.10;;;7.20;;
72198;SDS011;60103;51.014;16.992;2023-06-19T00:04:02;12.60;;;7.50;;
72198;SDS011;60103;51.014;16.992;2023-06-19T00:06:36;12.60;;;7.70;;
72198;SDS011;60103;51.014;16.992;2023-06-19T00:09:11;12.80;;;7.80;;
72198;SDS011;60103;51.014;16.992;2023-06-19T00:11:42;12.70;;;7.40;;
72198;SDS011;60103;51.014;16.992;2023-06-19T00:14:13;12.30;;;7.70;;
72198;SDS011;60103;51.014;16.992;2023-06-19T00:16:46;12.50;;;7.20;;
72198;SDS011;60103;51.014;16.992;2023-06-19T00:19:19;12.80;;;7.80;;
72198;SDS011;60103;51.014;16.992;2023-06-19T00:21:53;13.90;;;7.70;;
72198;SDS011;60103;51.014;16.992;2023-06-19T00:24:29;12.50;;;7.60;;
72198;SDS011;60103;51.014;16.992;2023-06-19T00:27:04;13.50;;;7.70;;
72198;SDS011;60103;51.014;16.992;2023-06-19T00:29:40;11.80;;;7.00;;
72198;SDS011;60103;51.014;16.992;2023-06-19T00:32:13;12.10;;;6.80;;
72198;SDS011;60103;51.014;16.992;2023-06-19T00:34:45;11.90;;;6.80;;
72198;SDS011;60103;51.014;16.992;2023-06-19T00:37:20;14.10;;;7.90;;
72198;SDS011;60103;51.014;16.992;2023-06-19T00:39:53;12.80;;;7.00;;
72198;SDS011;60103;51.014;16.992;2023-06-19T00:42:25;12.80;;;7.60;;
72198;SDS011;60103;51.014;16.992;2023-06-19T00:44:56;16.30;;;7.70;;
72198;SDS011;60103;51.014;16.992;2023-06-19T00:47:25;13.40;;;7.80;;
72198;SDS011;60103;51.014;16.992;2023-06-19T00:49:54;13.50;;;7.30;;
72198;SDS011;60103;51.014;16.992;2023-06-19T00:52:23;13.50;;;7.00;;
72198;SDS011;60103;51.014;16.992;2023-06-19T00:54:53;13.20;;;7.00;;
72198;SDS011;60103;51.014;16.992;2023-06-19T00:57:22;15.40;;;7.70;;
72198;SDS011;60103;51.014;16.992;2023-06-19T00:59:51;14.30;;;7.80;;
72198;SDS011;60103;51.014;16.992;2023-06-19T01:02:21;13.80;;;7.70;;
72198;SDS011;60103;51.014;16.992;2023-06-19T01:04:52;13.80;;;8.40;;
72198;SDS011;60103;51.014;16.992;2023-06-19T01:07:25;13.00;;;7.20;;
72198;SDS011;60103;51.014;16.992;2023-06-19T01:10:18;14.20;;;7.00;;
72198;SDS011;60103;51.014;16.992;2023-06-19T01:12:53;12.10;;;7.10;;
72198;SDS011;60103;51.014;16.992;2023-06-19T01:15:29;12.70;;;6.90;;
72198;SDS011;60103;51.014;16.992;2023-06-19T01:17:58;12.30;;;7.40;;
72198;SDS011;60103;51.014;16.992;2023-06-19T01:20:27;14.50;;;8.30;;
72198;SDS011;60103;51.014;16.992;2023-06-19T01:22:56;14.50;;;7.80;;
72198;SDS011;60103;51.014;16.992;2023-06-19T01:25:25;14.00;;;7.50;;
72198;SDS011;60103;51.014;16.992;2023-06-19T01:27:54;13.40;;;7.70;;
72198;SDS011;60103;51.014;16.992;2023-06-19T01:30:23;12.50;;;7.10;;
72198;SDS011;60103;51.014;16.992;2023-06-19T01:35:40;14.40;;;7.10;;
72198;SDS011;60103;51.014;16.992;2023-06-19T01:38:19;13.70;;;7.60;;
72198;SDS011;60103;51.014;16.992;2023-06-19T01:40:55;12.10;;;6.80;;
72198;SDS011;60103;51.014;16.992;2023-06-19T01:43:26;11.90;;;6.70;;
72198;SDS011;60103;51.014;16.992;2023-06-19T01:45:55;12.40;;;7.10;;
72198;SDS011;60103;51.014;16.992;2023-06-19T01:48:29;12.20;;;7.00;;
72198;SDS011;60103;51.014;16.992;2023-06-19T01:51:01;12.10;;;7.30;;
72198;SDS011;60103;51.014;16.992;2023-06-19T01:53:34;12.80;;;7.20;;
72198;SDS011;60103;51.014;16.992;2023-06-19T01:56:10;13.30;;;8.00;;
72198;SDS011;60103;51.014;16.992;2023-06-19T01:58:41;13.20;;;7.50;;
72198;SDS011;60103;51.014;16.992;2023-06-19T02:01:17;13.30;;;7.40;;
72198;SDS011;60103;51.014;16.992;2023-06-19T02:03:48;14.10;;;8.20;;
72198;SDS011;60103;51.014;16.992;2023-06-19T02:06:18;16.00;;;8.90;;
72198;SDS011;60103;51.014;16.992;2023-06-19T02:08:47;14.00;;;7.60;;
72198;SDS011;60103;51.014;16.992;2023-06-19T02:11:16;11.50;;;6.30;;
72198;SDS011;60103;51.014;16.992;2023-06-19T02:13:45;13.10;;;7.10;;
72198;SDS011;60103;51.014;16.992;2023-06-19T02:16:14;13.60;;;7.00;;
72198;SDS011;60103;51.014;16.992;2023-06-19T02:18:43;14.70;;;7.40;;
72198;SDS011;60103;51.014;16.992;2023-06-19T02:21:12;15.50;;;8.00;;
72198;SDS011;60103;51.014;16.992;2023-06-19T02:23:41;14.50;;;8.40;;
72198;SDS011;60103;51.014;16.992;2023-06-19T02:26:10;13.40;;;7.50;;
72198;SDS011;60103;51.014;16.992;2023-06-19T02:28:39;15.40;;;7.80;;
72198;SDS011;60103;51.014;16.992;2023-06-19T02:31:08;14.90;;;7.70;;
72198;SDS011;60103;51.014;16.992;2023-06-19T02:33:38;14.30;;;7.50;;
72198;SDS011;60103;51.014;16.992;2023-06-19T02:36:07;14.10;;;7.70;;
72198;SDS011;60103;51.014;16.992;2023-06-19T02:38:36;14.50;;;8.20;;
72198;SDS011;60103;51.014;16.992;2023-06-19T02:41:04;14.50;;;8.10;;
72198;SDS011;60103;51.014;16.992;2023-06-19T02:43:34;13.00;;;7.70;;
72198;SDS011;60103;51.014;16.992;2023-06-19T02:46:03;13.60;;;8.40;;
72198;SDS011;60103;51.014;16.992;2023-06-19T02:48:32;14.60;;;7.60;;
72198;SDS011;60103;51.014;16.992;2023-06-19T02:51:01;14.10;;;8.10;;
72198;SDS011;60103;51.014;16.992;2023-06-19T02:53:35;13.90;;;8.10;;
72198;SDS011;60103;51.014;16.992;2023-06-19T02:56:09;14.90;;;8.60;;
72198;SDS011;60103;51.014;16.992;2023-06-19T02:58:40;14.20;;;7.90;;
72198;SDS011;60103;51.014;16.992;2023-06-19T03:01:13;16.20;;;8.40;;
72198;SDS011;60103;51.014;16.992;2023-06-19T03:03:48;13.10;;;7.10;;
72198;SDS011;60103;51.014;16.992;2023-06-19T03:06:21;12.90;;;7.30;;
72198;SDS011;60103;51.014;16.992;2023-06-19T03:08:57;17.40;;;7.60;;
72198;SDS011;60103;51.014;16.992;2023-06-19T03:11:29;14.70;;;8.30;;
72198;SDS011;60103;51.014;16.992;2023-06-19T03:14:01;13.60;;;7.50;;
72198;SDS011;60103;51.014;16.992;2023-06-19T03:16:38;14.90;;;7.10;;
72198;SDS011;60103;51.014;16.992;2023-06-19T03:19:11;12.20;;;6.80;;
72198;SDS011;60103;51.014;16.992;2023-06-19T03:21:41;14.30;;;7.10;;
72198;SDS011;60103;51.014;16.992;2023-06-19T03:24:11;12.50;;;6.90;;
72198;SDS011;60103;51.014;16.992;2023-06-19T03:26:40;13.00;;;6.60;;
72198;SDS011;60103;51.014;16.992;2023-06-19T03:29:09;13.10;;;7.80;;
72198;SDS011;60103;51.014;16.992;2023-06-19T03:31:58;14.20;;;7.10;;
72198;SDS011;60103;51.014;16.992;2023-06-19T03:34:33;14.00;;;7.70;;
72198;SDS011;60103;51.014;16.992;2023-06-19T03:37:07;15.60;;;8.70;;
72198;SDS011;60103;51.014;16.992;2023-06-19T03:39:41;14.30;;;8.20;;
72198;SDS011;60103;51.014;16.992;2023-06-19T03:42:16;15.90;;;8.80;;
72198;SDS011;60103;51.014;16.992;2023-06-19T03:44:50;15.00;;;8.60;;
72198;SDS011;60103;51.014;16.992;2023-06-19T03:47:24;15.70;;;9.30;;
72198;SDS011;60103;51.014;16.992;2023-06-19T03:49:57;15.70;;;8.50;;
72198;SDS011;60103;51.014;16.992;2023-06-19T03:52:50;15.70;;;8.70;;
72198;SDS011;60103;51.014;16.992;2023-06-19T03:55:21;16.90;;;9.30;;
72198;SDS011;60103;51.014;16.992;2023-06-19T03:57:53;14.90;;;8.80;;
72198;SDS011;60103;51.014;16.992;2023-06-19T04:00:26;15.90;;;9.60;;
72198;SDS011;60103;51.014;16.992;2023-06-19T04:03:01;17.00;;;9.70;;
72198;SDS011;60103;51.014;16.992;2023-06-19T04:05:33;16.70;;;10.50;;
72198;SDS011;60103;51.014;16.992;2023-06-19T04:08:03;16.20;;;9.70;;
72198;SDS011;60103;51.014;16.992;2023-06-19T04:10:38;16.30;;;9.60;;
72198;SDS011;60103;51.014;16.992;2023-06-19T04:13:10;16.70;;;9.60;;
72198;SDS011;60103;51.014;16.992;2023-06-19T04:15:45;15.20;;;9.30;;
72198;SDS011;60103;51.014;16.992;2023-06-19T04:18:21;16.70;;;9.80;;
72198;SDS011;60103;51.014;16.992;2023-06-19T04:20:53;16.50;;;9.60;;
72198;SDS011;60103;51.014;16.992;2023-06-19T04:23:30;16.40;;;9.70;;
72198;SDS011;60103;51.014;16.992;2023-06-19T04:26:02;15.80;;;9.60;;
72198;SDS011;60103;51.014;16.992;2023-06-19T04:28:34;15.90;;;10.30;;
72198;SDS011;60103;51.014;16.992;2023-06-19T04:31:06;16.70;;;10.30;;
72198;SDS011;60103;51.014;16.992;2023-06-19T04:33:37;15.90;;;10.10;;
72198;SDS011;60103;51.014;16.992;2023-06-19T04:36:07;15.00;;;9.80;;
72198;SDS011;60103;51.014;16.992;2023-06-19T04:38:44;15.90;;;10.50;;
72198;SDS011;60103;51.014;16.992;2023-06-19T04:41:21;15.70;;;9.90;;
72198;SDS011;60103;51.014;16.992;2023-06-19T04:43:55;19.40;;;9.30;;
72198;SDS011;60103;51.014;16.992;2023-06-19T04:46:30;15.80;;;10.50;;
72198;SDS011;60103;51.014;16.992;2023-06-19T04:49:03;16.40;;;9.70;;
72198;SDS011;60103;51.014;16.992;2023-06-19T04:51:39;17.30;;;10.20;;
72198;SDS011;60103;51.014;16.992;2023-06-19T04:54:14;17.30;;;10.10;;
72198;SDS011;60103;51.014;16.992;2023-06-19T04:56:45;17.80;;;10.60;;
72198;SDS011;60103;51.014;16.992;2023-06-19T04:59:16;17.70;;;10.70;;
72198;SDS011;60103;51.014;16.992;2023-06-19T05:01:51;17.40;;;10.30;;
72198;SDS011;60103;51.014;16.992;2023-06-19T05:04:29;17.00;;;10.40;;
72198;SDS011;60103;51.014;16.992;2023-06-19T05:07:03;17.50;;;11.00;;
72198;SDS011;60103;51.014;16.992;2023-06-19T05:09:36;16.10;;;10.60;;
72198;SDS011;60103;51.014;16.992;2023-06-19T05:12:05;16.90;;;10.20;;
72198;SDS011;60103;51.014;16.992;2023-06-19T05:14:38;15.00;;;9.60;;
72198;SDS011;60103;51.014;16.992;2023-06-19T05:17:22;16.40;;;10.10;;
72198;SDS011;60103;51.014;16.992;2023-06-19T05:19:55;15.70;;;10.40;;
72198;SDS011;60103;51.014;16.992;2023-06-19T05:22:41;17.20;;;9.50;;
72198;SDS011;60103;51.014;16.992;2023-06-19T05:25:14;16.70;;;10.00;;
72198;SDS011;60103;51.014;16.992;2023-06-19T05:27:48;18.60;;;10.30;;
72198;SDS011;60103;51.014;16.992;2023-06-19T05:30:19;15.20;;;9.10;;
72198;SDS011;60103;51.014;16.992;2023-06-19T05:32:52;17.50;;;9.90;;
72198;SDS011;60103;51.014;16.992;2023-06-19T05:35:28;16.10;;;9.60;;
72198;SDS011;60103;51.014;16.992;2023-06-19T05:38:04;16.60;;;9.20;;
72198;SDS011;60103;51.014;16.992;2023-06-19T05:40:35;14.20;;;8.70;;
72198;SDS011;60103;51.014;16.992;2023-06-19T05:43:06;16.00;;;9.40;;
72198;SDS011;60103;51.014;16.992;2023-06-19T05:45:41;13.90;;;8.20;;
72198;SDS011;60103;51.014;16.992;2023-06-19T05:48:15;14.10;;;8.80;;
72198;SDS011;60103;51.014;16.992;2023-06-19T05:50:48;14.20;;;9.50;;
72198;SDS011;60103;51.014;16.992;2023-06-19T05:53:21;14.00;;;8.70;;
72198;SDS011;60103;51.014;16.992;2023-06-19T05:55:52;13.70;;;8.70;;
72198;SDS011;60103;51.014;16.992;2023-06-19T05:58:22;14.70;;;9.00;;
72198;SDS011;60103;51.014;16.992;2023-06-19T06:00:58;14.50;;;8.60;;
72198;SDS011;60103;51.014;16.992;2023-06-19T06:03:31;15.00;;;8.80;;
72198;SDS011;60103;51.014;16.992;2023-06-19T06:06:09;14.20;;;9.00;;
72198;SDS011;60103;51.014;16.992;2023-06-19T06:08:38;13.70;;;8.00;;
72198;SDS011;60103;51.014;16.992;2023-06-19T06:11:09;13.00;;;7.70;;
72198;SDS011;60103;51.014;16.992;2023-06-19T06:13:42;12.80;;;7.90;;
72198;SDS011;60103;51.014;16.992;2023-06-19T06:16:11;13.60;;;8.40;;
72198;SDS011;60103;51.014;16.992;2023-06-19T06:18:39;12.20;;;7.50;;
72198;SDS011;60103;51.014;16.992;2023-06-19T06:21:09;14.70;;;7.80;;
72198;SDS011;60103;51.014;16.992;2023-06-19T06:23:40;13.80;;;8.40;;
72198;SDS011;60103;51.014;16.992;2023-06-19T06:26:10;13.50;;;8.10;;
72198;SDS011;60103;51.014;16.992;2023-06-19T06:28:39;13.80;;;7.70;;
72198;SDS011;60103;51.014;16.992;2023-06-19T06:31:09;13.80;;;7.70;;
72198;SDS011;60103;51.014;16.992;2023-06-19T06:33:38;14.10;;;7.70;;
72198;SDS011;60103;51.014;16.992;2023-06-19T06:36:07;12.40;;;7.70;;
72198;SDS011;60103;51.014;16.992;2023-06-19T06:38:36;11.90;;;7.50;;
72198;SDS011;60103;51.014;16.992;2023-06-19T06:41:06;13.50;;;8.00;;
72198;SDS011;60103;51.014;16.992;2023-06-19T06:43:36;13.80;;;7.90;;
72198;SDS011;60103;51.014;16.992;2023-06-19T06:46:18;13.60;;;8.00;;
72198;SDS011;60103;51.014;16.992;2023-06-19T06:48:49;15.10;;;8.50;;
72198;SDS011;60103;51.014;16.992;2023-06-19T06:51:19;14.90;;;7.50;;
72198;SDS011;60103;51.014;16.992;2023-06-19T06:53:48;13.30;;;7.80;;
72198;SDS011;60103;51.014;16.992;2023-06-19T06:56:17;13.20;;;7.50;;
72198;SDS011;60103;51.014;16.992;2023-06-19T06:58:46;10.80;;;6.70;;
72198;SDS011;60103;51.014;16.992;2023-06-19T07:01:15;14.30;;;7.90;;
72198;SDS011;60103;51.014;16.992;2023-06-19T07:03:44;14.10;;;7.90;;
72198;SDS011;60103;51.014;16.992;2023-06-19T07:06:13;12.50;;;7.70;;
72198;SDS011;60103;51.014;16.992;2023-06-19T07:08:42;13.90;;;6.90;;
72198;SDS011;60103;51.014;16.992;2023-06-19T07:11:11;12.70;;;7.60;;
72198;SDS011;60103;51.014;16.992;2023-06-19T07:13:40;12.00;;;7.50;;
72198;SDS011;60103;51.014;16.992;2023-06-19T07:16:09;13.90;;;8.10;;
72198;SDS011;60103;51.014;16.992;2023-06-19T07:18:39;12.10;;;7.50;;
72198;SDS011;60103;51.014;16.992;2023-06-19T07:21:11;14.20;;;7.70;;
72198;SDS011;60103;51.014;16.992;2023-06-19T07:23:41;12.60;;;7.50;;
72198;SDS011;60103;51.014;16.992;2023-06-19T07:26:12;13.20;;;7.20;;
72198;SDS011;60103;51.014;16.992;2023-06-19T07:28:41;11.80;;;6.70;;
72198;SDS011;60103;51.014;16.992;2023-06-19T07:31:10;11.10;;;7.00;;
72198;SDS011;60103;51.014;16.992;2023-06-19T07:33:39;12.90;;;6.20;;
72198;SDS011;60103;51.014;16.992;2023-06-19T07:36:08;11.20;;;6.60;;
72198;SDS011;60103;51.014;16.992;2023-06-19T07:38:43;10.70;;;6.80;;
72198;SDS011;60103;51.014;16.992;2023-06-19T07:41:12;10.70;;;6.50;;
72198;SDS011;60103;51.014;16.992;2023-06-19T07:43:41;10.10;;;6.20;;
72198;SDS011;60103;51.014;16.992;2023-06-19T07:46:11;12.40;;;7.30;;
72198;SDS011;60103;51.014;16.992;2023-06-19T07:48:42;11.80;;;7.10;;
72198;SDS011;60103;51.014;16.992;2023-06-19T07:51:15;10.50;;;6.40;;
72198;SDS011;60103;51.014;16.992;2023-06-19T07:53:44;11.50;;;6.30;;
72198;SDS011;60103;51.014;16.992;2023-06-19T07:56:13;11.10;;;6.60;;
72198;SDS011;60103;51.014;16.992;2023-06-19T07:58:42;11.40;;;6.30;;
72198;SDS011;60103;51.014;16.992;2023-06-19T08:01:10;12.80;;;6.00;;
72198;SDS011;60103;51.014;16.992;2023-06-19T08:03:39;11.60;;;6.30;;
72198;SDS011;60103;51.014;16.992;2023-06-19T08:06:09;9.90;;;5.70;;
72198;SDS011;60103;51.014;16.992;2023-06-19T08:08:44;9.40;;;5.80;;
72198;SDS011;60103;51.014;16.992;2023-06-19T08:11:13;11.40;;;6.60;;
72198;SDS011;60103;51.014;16.992;2023-06-19T08:13:42;11.10;;;5.90;;
72198;SDS011;60103;51.014;16.992;2023-06-19T08:16:13;16.10;;;11.30;;
72198;SDS011;60103;51.014;16.992;2023-06-19T08:18:43;10.50;;;6.20;;
72198;SDS011;60103;51.014;16.992;2023-06-19T08:21:13;11.30;;;6.00;;
72198;SDS011;60103;51.014;16.992;2023-06-19T08:23:48;8.90;;;5.30;;
72198;SDS011;60103;51.014;16.992;2023-06-19T08:26:20;9.90;;;5.80;;
72198;SDS011;60103;51.014;16.992;2023-06-19T08:28:53;10.30;;;6.00;;
72198;SDS011;60103;51.014;16.992;2023-06-19T08:31:25;9.60;;;5.70;;
72198;SDS011;60103;51.014;16.992;2023-06-19T08:33:57;10.00;;;5.40;;
72198;SDS011;60103;51.014;16.992;2023-06-19T08:36:32;12.00;;;5.90;;
72198;SDS011;60103;51.014;16.992;2023-06-19T08:39:07;10.40;;;5.60;;
72198;SDS011;60103;51.014;16.992;2023-06-19T08:41:46;9.70;;;5.40;;
72198;SDS011;60103;51.014;16.992;2023-06-19T08:44:34;11.10;;;5.70;;
72198;SDS011;60103;51.014;16.992;2023-06-19T08:47:07;10.60;;;5.40;;
72198;SDS011;60103;51.014;16.992;2023-06-19T08:49:38;11.10;;;5.30;;
72198;SDS011;60103;51.014;16.992;2023-06-19T08:52:09;12.50;;;5.70;;
72198;SDS011;60103;51.014;16.992;2023-06-19T08:54:40;9.60;;;5.80;;
72198;SDS011;60103;51.014;16.992;2023-06-19T08:57:14;10.80;;;5.90;;
72198;SDS011;60103;51.014;16.992;2023-06-19T08:59:48;11.50;;;5.20;;
72198;SDS011;60103;51.014;16.992;2023-06-19T09:02:19;9.70;;;5.30;;
72198;SDS011;60103;51.014;16.992;2023-06-19T09:04:48;9.50;;;4.80;;
72198;SDS011;60103;51.014;16.992;2023-06-19T09:07:17;8.80;;;4.30;;
72198;SDS011;60103;51.014;16.992;2023-06-19T09:09:48;8.60;;;4.90;;
72198;SDS011;60103;51.014;16.992;2023-06-19T09:12:17;8.60;;;4.80;;
72198;SDS011;60103;51.014;16.992;2023-06-19T09:14:57;9.80;;;5.20;;
72198;SDS011;60103;51.014;16.992;2023-06-19T09:17:26;11.00;;;6.20;;
72198;SDS011;60103;51.014;16.992;2023-06-19T09:19:59;9.50;;;6.10;;
72198;SDS011;60103;51.014;16.992;2023-06-19T09:22:33;12.00;;;5.60;;
72198;SDS011;60103;51.014;16.992;2023-06-19T09:25:02;8.60;;;4.70;;
72198;SDS011;60103;51.014;16.992;2023-06-19T09:27:32;8.80;;;4.70;;
72198;SDS011;60103;51.014;16.992;2023-06-19T09:30:02;10.10;;;5.00;;
72198;SDS011;60103;51.014;16.992;2023-06-19T09:32:32;8.10;;;4.30;;
72198;SDS011;60103;51.014;16.992;2023-06-19T09:35:04;8.00;;;4.30;;
72198;SDS011;60103;51.014;16.992;2023-06-19T09:37:38;8.70;;;4.20;;
72198;SDS011;60103;51.014;16.992;2023-06-19T09:40:12;8.60;;;4.60;;
72198;SDS011;60103;51.014;16.992;2023-06-19T09:42:42;7.90;;;4.30;;
72198;SDS011;60103;51.014;16.992;2023-06-19T09:45:19;8.10;;;4.10;;
72198;SDS011;60103;51.014;16.992;2023-06-19T09:47:49;8.80;;;4.50;;
72198;SDS011;60103;51.014;16.992;2023-06-19T09:50:28;8.20;;;4.60;;
72198;SDS011;60103;51.014;16.992;2023-06-19T09:52:58;8.30;;;4.40;;
72198;SDS011;60103;51.014;16.992;2023-06-19T09:55:31;8.00;;;4.30;;
72198;SDS011;60103;51.014;16.992;2023-06-19T09:58:02;9.40;;;4.60;;
72198;SDS011;60103;51.014;16.992;2023-06-19T10:00:36;9.10;;;4.10;;
72198;SDS011;60103;51.014;16.992;2023-06-19T10:03:11;8.80;;;4.10;;
72198;SDS011;60103;51.014;16.992;2023-06-19T10:05:44;9.00;;;4.40;;
72198;SDS011;60103;51.014;16.992;2023-06-19T10:08:25;8.90;;;4.50;;
72198;SDS011;60103;51.014;16.992;2023-06-19T10:10:58;8.30;;;4.10;;
72198;SDS011;60103;51.014;16.992;2023-06-19T10:13:32;8.60;;;4.40;;
72198;SDS011;60103;51.014;16.992;2023-06-19T10:16:04;8.90;;;4.60;;
72198;SDS011;60103;51.014;16.992;2023-06-19T10:18:46;9.30;;;4.60;;
72198;SDS011;60103;51.014;16.992;2023-06-19T10:21:19;8.30;;;4.50;;
72198;SDS011;60103;51.014;16.992;2023-06-19T10:23:53;8.20;;;4.40;;
72198;SDS011;60103;51.014;16.992;2023-06-19T10:26:32;9.30;;;4.50;;
72198;SDS011;60103;51.014;16.992;2023-06-19T10:29:12;8.70;;;4.60;;
72198;SDS011;60103;51.014;16.992;2023-06-19T10:31:43;9.00;;;4.70;;
72198;SDS011;60103;51.014;16.992;2023-06-19T10:34:13;8.90;;;4.30;;
72198;SDS011;60103;51.014;16.992;2023-06-19T10:36:44;8.70;;;4.50;;
72198;SDS011;60103;51.014;16.992;2023-06-19T10:39:15;8.70;;;4.10;;
72198;SDS011;60103;51.014;16.992;2023-06-19T10:41:44;8.90;;;4.00;;
72198;SDS011;60103;51.014;16.992;2023-06-19T10:44:13;8.80;;;4.30;;
72198;SDS011;60103;51.014;16.992;2023-06-19T10:46:43;8.40;;;4.50;;
72198;SDS011;60103;51.014;16.992;2023-06-19T10:49:12;7.50;;;4.00;;
72198;SDS011;60103;51.014;16.992;2023-06-19T10:51:42;8.50;;;4.40;;
72198;SDS011;60103;51.014;16.992;2023-06-19T10:54:16;8.50;;;4.20;;
72198;SDS011;60103;51.014;16.992;2023-06-19T10:56:48;7.50;;;4.00;;
72198;SDS011;60103;51.014;16.992;2023-06-19T10:59:46;9.20;;;4.30;;
72198;SDS011;60103;51.014;16.992;2023-06-19T11:02:21;9.80;;;4.70;;
72198;SDS011;60103;51.014;16.992;2023-06-19T11:04:53;8.60;;;4.60;;
72198;SDS011;60103;51.014;16.992;2023-06-19T11:07:25;9.80;;;4.80;;
72198;SDS011;60103;51.014;16.992;2023-06-19T11:09:55;8.70;;;4.30;;
72198;SDS011;60103;51.014;16.992;2023-06-19T11:12:25;8.00;;;4.20;;
72198;SDS011;60103;51.014;16.992;2023-06-19T11:14:54;8.60;;;4.40;;
72198;SDS011;60103;51.014;16.992;2023-06-19T11:17:24;8.90;;;3.90;;
72198;SDS011;60103;51.014;16.992;2023-06-19T11:19:53;7.70;;;4.10;;
72198;SDS011;60103;51.014;16.992;2023-06-19T11:22:35;8.50;;;4.40;;
72198;SDS011;60103;51.014;16.992;2023-06-19T11:25:07;9.20;;;4.10;;
72198;SDS011;60103;51.014;16.992;2023-06-19T11:27:38;7.40;;;3.60;;
72198;SDS011;60103;51.014;16.992;2023-06-19T11:30:08;8.00;;;4.50;;
72198;SDS011;60103;51.014;16.992;2023-06-19T11:32:38;8.00;;;4.40;;
72198;SDS011;60103;51.014;16.992;2023-06-19T11:35:16;8.50;;;4.30;;
72198;SDS011;60103;51.014;16.992;2023-06-19T11:37:46;10.80;;;4.10;;
72198;SDS011;60103;51.014;16.992;2023-06-19T11:40:17;8.60;;;4.20;;
72198;SDS011;60103;51.014;16.992;2023-06-19T11:42:48;8.90;;;3.70;;
72198;SDS011;60103;51.014;16.992;2023-06-19T11:45:18;8.60;;;4.00;;
72198;SDS011;60103;51.014;16.992;2023-06-19T11:47:48;8.50;;;4.50;;
72198;SDS011;60103;51.014;16.992;2023-06-19T11:50:17;8.70;;;4.60;;
72198;SDS011;60103;51.014;16.992;2023-06-19T11:52:50;8.70;;;4.70;;
72198;SDS011;60103;51.014;16.992;2023-06-19T11:55:20;8.40;;;4.50;;
72198;SDS011;60103;51.014;16.992;2023-06-19T11:57:53;8.60;;;4.40;;
72198;SDS011;60103;51.014;16.992;2023-06-19T12:00:27;8.10;;;4.40;;
72198;SDS011;60103;51.014;16.992;2023-06-19T12:02:58;9.30;;;4.20;;
72198;SDS011;60103;51.014;16.992;2023-06-19T12:05:29;8.70;;;4.40;;
72198;SDS011;60103;51.014;16.992;2023-06-19T12:07:59;7.20;;;3.60;;
72198;SDS011;60103;51.014;16.992;2023-06-19T12:10:31;8.00;;;4.10;;
72198;SDS011;60103;51.014;16.992;2023-06-19T12:13:00;9.70;;;4.20;;
72198;SDS011;60103;51.014;16.992;2023-06-19T12:15:29;8.10;;;4.10;;
72198;SDS011;60103;51.014;16.992;2023-06-19T12:17:58;8.10;;;4.00;;
72198;SDS011;60103;51.014;16.992;2023-06-19T12:20:27;8.30;;;4.50;;
72198;SDS011;60103;51.014;16.992;2023-06-19T12:22:56;8.70;;;4.50;;
72198;SDS011;60103;51.014;16.992;2023-06-19T12:25:25;8.20;;;4.80;;
72198;SDS011;60103;51.014;16.992;2023-06-19T12:27:54;8.80;;;4.70;;
72198;SDS011;60103;51.014;16.992;2023-06-19T12:30:23;8.80;;;4.90;;
72198;SDS011;60103;51.014;16.992;2023-06-19T12:32:53;8.40;;;4.70;;
72198;SDS011;60103;51.014;16.992;2023-06-19T12:35:25;8.90;;;4.60;;
72198;SDS011;60103;51.014;16.992;2023-06-19T12:37:55;8.90;;;4.60;;
72198;SDS011;60103;51.014;16.992;2023-06-19T12:40:25;9.60;;;5.20;;
72198;SDS011;60103;51.014;16.992;2023-06-19T12:42:55;8.60;;;4.60;;
72198;SDS011;60103;51.014;16.992;2023-06-19T12:45:24;7.90;;;4.40;;
72198;SDS011;60103;51.014;16.992;2023-06-19T12:47:53;7.80;;;4.30;;
72198;SDS011;60103;51.014;16.992;2023-06-19T12:50:23;8.70;;;4.60;;
72198;SDS011;60103;51.014;16.992;2023-06-19T12:52:53;8.20;;;4.30;;
72198;SDS011;60103;51.014;16.992;2023-06-19T12:55:22;9.80;;;4.60;;
72198;SDS011;60103;51.014;16.992;2023-06-19T12:57:51;7.80;;;4.10;;
72198;SDS011;60103;51.014;16.992;2023-06-19T13:00:20;10.40;;;4.50;;
72198;SDS011;60103;51.014;16.992;2023-06-19T13:02:49;8.20;;;4.20;;
72198;SDS011;60103;51.014;16.992;2023-06-19T13:05:18;8.90;;;5.10;;
72198;SDS011;60103;51.014;16.992;2023-06-19T13:07:47;8.50;;;4.80;;
72198;SDS011;60103;51.014;16.992;2023-06-19T13:10:17;8.20;;;4.60;;
72198;SDS011;60103;51.014;16.992;2023-06-19T13:12:45;9.30;;;4.50;;
72198;SDS011;60103;51.014;16.992;2023-06-19T13:15:15;9.40;;;4.40;;
72198;SDS011;60103;51.014;16.992;2023-06-19T13:17:45;8.20;;;4.70;;
72198;SDS011;60103;51.014;16.992;2023-06-19T13:20:14;7.80;;;4.00;;
72198;SDS011;60103;51.014;16.992;2023-06-19T13:22:43;8.60;;;4.00;;
72198;SDS011;60103;51.014;16.992;2023-06-19T13:25:12;7.90;;;4.50;;
72198;SDS011;60103;51.014;16.992;2023-06-19T13:27:42;8.10;;;4.10;;
72198;SDS011;60103;51.014;16.992;2023-06-19T13:30:12;8.20;;;4.40;;
72198;SDS011;60103;51.014;16.992;2023-06-19T13:32:41;8.20;;;4.40;;
72198;SDS011;60103;51.014;16.992;2023-06-19T13:35:10;8.70;;;4.50;;
72198;SDS011;60103;51.014;16.992;2023-06-19T13:37:39;9.10;;;4.40;;
72198;SDS011;60103;51.014;16.992;2023-06-19T13:40:09;8.00;;;4.10;;
72198;SDS011;60103;51.014;16.992;2023-06-19T13:42:38;9.10;;;4.70;;
72198;SDS011;60103;51.014;16.992;2023-06-19T13:45:08;10.90;;;4.70;;
72198;SDS011;60103;51.014;16.992;2023-06-19T13:47:37;9.30;;;4.20;;
72198;SDS011;60103;51.014;16.992;2023-06-19T13:50:07;8.40;;;4.40;;
72198;SDS011;60103;51.014;16.992;2023-06-19T13:52:37;8.70;;;4.30;;
72198;SDS011;60103;51.014;16.992;2023-06-19T13:55:06;7.60;;;4.10;;
72198;SDS011;60103;51.014;16.992;2023-06-19T13:57:35;8.70;;;4.20;;
72198;SDS011;60103;51.014;16.992;2023-06-19T14:00:06;8.40;;;4.50;;
72198;SDS011;60103;51.014;16.992;2023-06-19T14:02:42;10.40;;;4.30;;
72198;SDS011;60103;51.014;16.992;2023-06-19T14:05:11;8.50;;;4.50;;
72198;SDS011;60103;51.014;16.992;2023-06-19T14:07:43;9.50;;;4.50;;
72198;SDS011;60103;51.014;16.992;2023-06-19T14:10:12;9.20;;;4.30;;
72198;SDS011;60103;51.014;16.992;2023-06-19T14:12:43;9.60;;;4.50;;
72198;SDS011;60103;51.014;16.992;2023-06-19T14:15:15;9.20;;;4.30;;
72198;SDS011;60103;51.014;16.992;2023-06-19T14:17:44;9.90;;;4.80;;
72198;SDS011;60103;51.014;16.992;2023-06-19T14:20:13;9.80;;;4.70;;
72198;SDS011;60103;51.014;16.992;2023-06-19T14:22:43;9.00;;;4.80;;
72198;SDS011;60103;51.014;16.992;2023-06-19T14:25:12;9.60;;;4.30;;
72198;SDS011;60103;51.014;16.992;2023-06-19T14:27:41;8.30;;;4.50;;
72198;SDS011;60103;51.014;16.992;2023-06-19T14:30:11;8.90;;;4.70;;
72198;SDS011;60103;51.014;16.992;2023-06-19T14:32:40;9.10;;;4.30;;
72198;SDS011;60103;51.014;16.992;2023-06-19T14:35:09;9.80;;;4.80;;
72198;SDS011;60103;51.014;16.992;2023-06-19T14:37:38;10.10;;;4.80;;
72198;SDS011;60103;51.014;16.992;2023-06-19T14:40:07;10.20;;;4.70;;
72198;SDS011;60103;51.014;16.992;2023-06-19T14:42:37;9.20;;;4.50;;
72198;SDS011;60103;51.014;16.992;2023-06-19T14:45:10;10.20;;;4.80;;
72198;SDS011;60103;51.014;16.992;2023-06-19T14:47:42;9.20;;;4.20;;
72198;SDS011;60103;51.014;16.992;2023-06-19T14:50:11;9.00;;;5.20;;
72198;SDS011;60103;51.014;16.992;2023-06-19T14:52:40;8.60;;;4.80;;
72198;SDS011;60103;51.014;16.992;2023-06-19T14:55:10;8.90;;;4.50;;